sensor_id;sensor_type;location;lat;lon;timestamp;pressure;altitude;pressure_sealevel;temperature;humidity
37202;BME280;37799;52.390;6.136;2023-02-17T00:01:58;101811.47;;;10.10;100.00
37202;BME280;37799;52.390;6.136;2023-02-17T00:04:23;101817.47;;;10.17;100.00
37202;BME280;37799;52.390;6.136;2023-02-17T00:06:48;101828.69;;;10.22;100.00
37202;BME280;37799;52.390;6.136;2023-02-17T00:09:14;101819.16;;;10.21;100.00
37202;BME280;37799;52.390;6.136;2023-02-17T00:11:40;101818.38;;;10.11;100.00
37202;BME280;37799;52.390;6.136;2023-02-17T00:14:05;101826.00;;;10.31;100.00
37202;BME280;37799;52.390;6.136;2023-02-17T00:16:32;101824.31;;;10.27;100.00
37202;BME280;37799;52.390;6.136;2023-02-17T00:18:59;101822.66;;;10.14;100.00
37202;BME280;37799;52.390;6.136;2023-02-17T00:21:27;101823.53;;;10.14;100.00
37202;BME280;37799;52.390;6.136;2023-02-17T00:23:53;101821.81;;;10.13;100.00
37202;BME280;37799;52.390;6.136;2023-02-17T00:26:19;101814.13;;;10.05;100.00
37202;BME280;37799;52.390;6.136;2023-02-17T00:28:45;101810.63;;;10.10;100.00
37202;BME280;37799;52.390;6.136;2023-02-17T00:31:20;101805.56;;;9.97;100.00
37202;BME280;37799;52.390;6.136;2023-02-17T00:33:46;101798.72;;;9.90;100.00
37202;BME280;37799;52.390;6.136;2023-02-17T00:36:14;101809.94;;;9.88;100.00
37202;BME280;37799;52.390;6.136;2023-02-17T00:38:42;101802.13;;;9.95;100.00
37202;BME280;37799;52.390;6.136;2023-02-17T00:41:07;101797.78;;;9.99;100.00
37202;BME280;37799;52.390;6.136;2023-02-17T00:43:32;101793.38;;;10.10;100.00
37202;BME280;37799;52.390;6.136;2023-02-17T00:45:58;101798.56;;;10.09;100.00
37202;BME280;37799;52.390;6.136;2023-02-17T00:48:23;101797.84;;;9.93;100.00
37202;BME280;37799;52.390;6.136;2023-02-17T00:50:48;101808.94;;;10.02;100.00
37202;BME280;37799;52.390;6.136;2023-02-17T00:53:14;101801.06;;;10.18;100.00
37202;BME280;37799;52.390;6.136;2023-02-17T00:55:39;101804.53;;;10.21;100.00
37202;BME280;37799;52.390;6.136;2023-02-17T00:58:04;101800.25;;;10.16;100.00
37202;BME280;37799;52.390;6.136;2023-02-17T01:00:30;101798.50;;;10.15;100.00
37202;BME280;37799;52.390;6.136;2023-02-17T01:02:55;101789.88;;;10.13;100.00
37202;BME280;37799;52.390;6.136;2023-02-17T01:05:20;101778.91;;;9.85;100.00
37202;BME280;37799;52.390;6.136;2023-02-17T01:07:46;101788.13;;;10.15;100.00
37202;BME280;37799;52.390;6.136;2023-02-17T01:10:11;101795.06;;;10.16;100.00
37202;BME280;37799;52.390;6.136;2023-02-17T01:12:37;101794.19;;;10.17;100.00
37202;BME280;37799;52.390;6.136;2023-02-17T01:15:02;101795.06;;;10.13;100.00
37202;BME280;37799;52.390;6.136;2023-02-17T01:17:28;101800.28;;;10.10;100.00
37202;BME280;37799;52.390;6.136;2023-02-17T01:19:53;101801.06;;;10.19;100.00
37202;BME280;37799;52.390;6.136;2023-02-17T01:22:18;101794.94;;;10.32;100.00
37202;BME280;37799;52.390;6.136;2023-02-17T01:24:44;101798.34;;;10.36;100.00
37202;BME280;37799;52.390;6.136;2023-02-17T01:27:09;101784.59;;;10.28;100.00
37202;BME280;37799;52.390;6.136;2023-02-17T01:29:34;101770.84;;;10.20;100.00
37202;BME280;37799;52.390;6.136;2023-02-17T01:31:59;101769.19;;;10.16;100.00
37202;BME280;37799;52.390;6.136;2023-02-17T01:34:25;101753.75;;;10.03;100.00
37202;BME280;37799;52.390;6.136;2023-02-17T01:36:50;101753.56;;;10.25;100.00
37202;BME280;37799;52.390;6.136;2023-02-17T01:39:17;101745.03;;;10.12;100.00
37202;BME280;37799;52.390;6.136;2023-02-17T01:41:43;101743.31;;;10.16;100.00
37202;BME280;37799;52.390;6.136;2023-02-17T01:44:15;101739.81;;;10.18;100.00
37202;BME280;37799;52.390;6.136;2023-02-17T01:46:44;101745.88;;;10.14;100.00
37202;BME280;37799;52.390;6.136;2023-02-17T01:51:48;101744.97;;;10.20;100.00
37202;BME280;37799;52.390;6.136;2023-02-17T01:54:19;101753.66;;;10.16;100.00
37202;BME280;37799;52.390;6.136;2023-02-17T01:56:47;101763.97;;;10.22;100.00
37202;BME280;37799;52.390;6.136;2023-02-17T01:59:20;101763.94;;;10.23;100.00
37202;BME280;37799;52.390;6.136;2023-02-17T02:01:49;101751.94;;;10.12;100.00
37202;BME280;37799;52.390;6.136;2023-02-17T02:04:18;101741.56;;;10.18;100.00
37202;BME280;37799;52.390;6.136;2023-02-17T02:06:45;101738.19;;;10.07;100.00
37202;BME280;37799;52.390;6.136;2023-02-17T02:09:15;101743.31;;;10.13;100.00
37202;BME280;37799;52.390;6.136;2023-02-17T02:11:42;101750.06;;;10.32;100.00
37202;BME280;37799;52.390;6.136;2023-02-17T02:14:09;101735.50;;;10.19;100.00
37202;BME280;37799;52.390;6.136;2023-02-17T02:16:47;101749.28;;;10.19;100.00
37202;BME280;37799;52.390;6.136;2023-02-17T02:22:16;101749.28;;;10.24;100.00
37202;BME280;37799;52.390;6.136;2023-02-17T02:25:02;101740.66;;;10.20;100.00
37202;BME280;37799;52.390;6.136;2023-02-17T02:30:31;101738.03;;;10.25;100.00
37202;BME280;37799;52.390;6.136;2023-02-17T02:33:22;101744.97;;;10.20;100.00
37202;BME280;37799;52.390;6.136;2023-02-17T02:38:38;101727.78;;;10.13;100.00
37202;BME280;37799;52.390;6.136;2023-02-17T02:41:10;101724.34;;;10.11;100.00
37202;BME280;37799;52.390;6.136;2023-02-17T02:43:38;101712.28;;;10.10;100.00
37202;BME280;37799;52.390;6.136;2023-02-17T02:46:03;101695.25;;;9.86;100.00
37202;BME280;37799;52.390;6.136;2023-02-17T02:48:29;101702.13;;;9.91;100.00
37202;BME280;37799;52.390;6.136;2023-02-17T02:53:49;101688.41;;;9.83;100.00
37202;BME280;37799;52.390;6.136;2023-02-17T02:59:30;101702.06;;;9.97;100.00
37202;BME280;37799;52.390;6.136;2023-02-17T03:04:38;101699.56;;;9.87;100.00
37202;BME280;37799;52.390;6.136;2023-02-17T03:07:23;101690.06;;;9.87;100.00
37202;BME280;37799;52.390;6.136;2023-02-17T03:09:53;101690.91;;;9.92;100.00
37202;BME280;37799;52.390;6.136;2023-02-17T03:12:19;101676.25;;;9.91;100.00
37202;BME280;37799;52.390;6.136;2023-02-17T03:14:52;101670.34;;;9.75;100.00
37202;BME280;37799;52.390;6.136;2023-02-17T03:17:18;101672.94;;;9.79;100.00
37202;BME280;37799;52.390;6.136;2023-02-17T03:19:44;101684.03;;;9.87;100.00
37202;BME280;37799;52.390;6.136;2023-02-17T03:22:18;101671.19;;;9.79;100.00
37202;BME280;37799;52.390;6.136;2023-02-17T03:24:45;101670.25;;;9.86;100.00
37202;BME280;37799;52.390;6.136;2023-02-17T03:27:10;101663.44;;;9.79;100.00
37202;BME280;37799;52.390;6.136;2023-02-17T03:29:36;101661.75;;;9.73;100.00
37202;BME280;37799;52.390;6.136;2023-02-17T03:32:01;101675.47;;;9.82;100.00
37202;BME280;37799;52.390;6.136;2023-02-17T03:34:27;101668.75;;;9.65;100.00
37202;BME280;37799;52.390;6.136;2023-02-17T03:36:52;101664.34;;;9.73;100.00
37202;BME280;37799;52.390;6.136;2023-02-17T03:39:17;101659.25;;;9.66;100.00
37202;BME280;37799;52.390;6.136;2023-02-17T03:41:43;101648.88;;;9.69;100.00
37202;BME280;37799;52.390;6.136;2023-02-17T03:44:08;101650.63;;;9.67;100.00
37202;BME280;37799;52.390;6.136;2023-02-17T03:46:33;101648.94;;;9.64;100.00
37202;BME280;37799;52.390;6.136;2023-02-17T03:48:58;101639.59;;;9.46;100.00
37202;BME280;37799;52.390;6.136;2023-02-17T03:51:24;101654.09;;;9.63;100.00
37202;BME280;37799;52.390;6.136;2023-02-17T03:53:50;101642.13;;;9.50;100.00
37202;BME280;37799;52.390;6.136;2023-02-17T03:56:17;101643.94;;;9.41;100.00
37202;BME280;37799;52.390;6.136;2023-02-17T03:58:43;101639.66;;;9.40;100.00
37202;BME280;37799;52.390;6.136;2023-02-17T04:01:11;101628.38;;;9.51;100.00
37202;BME280;37799;52.390;6.136;2023-02-17T04:03:37;101630.13;;;9.45;100.00
37202;BME280;37799;52.390;6.136;2023-02-17T04:06:04;101627.47;;;9.53;100.00
37202;BME280;37799;52.390;6.136;2023-02-17T04:08:29;101629.22;;;9.48;100.00
37202;BME280;37799;52.390;6.136;2023-02-17T04:10:58;101628.41;;;9.43;100.00
37202;BME280;37799;52.390;6.136;2023-02-17T04:13:24;101618.06;;;9.44;100.00
37202;BME280;37799;52.390;6.136;2023-02-17T04:15:50;101617.16;;;9.47;100.00
37202;BME280;37799;52.390;6.136;2023-02-17T04:18:15;101625.72;;;9.55;100.00
37202;BME280;37799;52.390;6.136;2023-02-17T04:20:42;101629.19;;;9.53;100.00
37202;BME280;37799;52.390;6.136;2023-02-17T04:23:08;101631.78;;;9.50;100.00
37202;BME280;37799;52.390;6.136;2023-02-17T04:25:35;101640.41;;;9.52;100.00
37202;BME280;37799;52.390;6.136;2023-02-17T04:28:03;101637.84;;;9.52;100.00
37202;BME280;37799;52.390;6.136;2023-02-17T04:30:29;101640.41;;;9.50;100.00
37202;BME280;37799;52.390;6.136;2023-02-17T04:32:54;101624.00;;;9.54;100.00
37202;BME280;37799;52.390;6.136;2023-02-17T04:35:19;101626.53;;;9.60;100.00
37202;BME280;37799;52.390;6.136;2023-02-17T04:37:45;101626.59;;;9.54;100.00
37202;BME280;37799;52.390;6.136;2023-02-17T04:40:10;101628.34;;;9.54;100.00
37202;BME280;37799;52.390;6.136;2023-02-17T04:42:36;101624.88;;;9.55;100.00
37202;BME280;37799;52.390;6.136;2023-02-17T04:45:04;101621.41;;;9.57;100.00
37202;BME280;37799;52.390;6.136;2023-02-17T04:47:29;101628.13;;;9.77;100.00
37202;BME280;37799;52.390;6.136;2023-02-17T04:49:55;101623.81;;;9.74;100.00
37202;BME280;37799;52.390;6.136;2023-02-17T04:52:20;101619.63;;;9.64;100.00
37202;BME280;37799;52.390;6.136;2023-02-17T04:54:45;101613.63;;;9.59;100.00
37202;BME280;37799;52.390;6.136;2023-02-17T04:57:10;101595.47;;;9.62;100.00
37202;BME280;37799;52.390;6.136;2023-02-17T04:59:36;101595.34;;;9.77;100.00
37202;BME280;37799;52.390;6.136;2023-02-17T05:02:01;101602.28;;;9.72;100.00
37202;BME280;37799;52.390;6.136;2023-02-17T05:04:27;101605.63;;;9.82;100.00
37202;BME280;37799;52.390;6.136;2023-02-17T05:06:52;101584.13;;;9.80;100.00
37202;BME280;37799;52.390;6.136;2023-02-17T05:09:18;101602.22;;;9.80;100.00
37202;BME280;37799;52.390;6.136;2023-02-17T05:11:43;101615.97;;;9.83;100.00
37202;BME280;37799;52.390;6.136;2023-02-17T05:14:09;101622.97;;;9.72;100.00
37202;BME280;37799;52.390;6.136;2023-02-17T05:16:34;101614.19;;;9.88;100.00
37202;BME280;37799;52.390;6.136;2023-02-17T05:18:59;101615.94;;;9.86;100.00
37202;BME280;37799;52.390;6.136;2023-02-17T05:21:25;101609.94;;;9.83;100.00
37202;BME280;37799;52.390;6.136;2023-02-17T05:23:50;101612.47;;;9.90;100.00
37202;BME280;37799;52.390;6.136;2023-02-17T05:26:15;101614.19;;;9.87;100.00
37202;BME280;37799;52.390;6.136;2023-02-17T05:28:41;101609.88;;;9.90;100.00
37202;BME280;37799;52.390;6.136;2023-02-17T05:31:06;101602.13;;;9.87;100.00
37202;BME280;37799;52.390;6.136;2023-02-17T05:33:31;101606.44;;;9.90;100.00
37202;BME280;37799;52.390;6.136;2023-02-17T05:36:01;101612.44;;;9.89;100.00
37202;BME280;37799;52.390;6.136;2023-02-17T05:38:27;101597.91;;;9.79;100.00
37202;BME280;37799;52.390;6.136;2023-02-17T05:40:52;101614.16;;;9.91;100.00
37202;BME280;37799;52.390;6.136;2023-02-17T05:43:17;101613.31;;;9.89;100.00
37202;BME280;37799;52.390;6.136;2023-02-17T05:45:43;101608.00;;;10.00;100.00
37202;BME280;37799;52.390;6.136;2023-02-17T05:48:08;101595.06;;;10.03;100.00
37202;BME280;37799;52.390;6.136;2023-02-17T05:50:33;101583.97;;;9.93;100.00
37202;BME280;37799;52.390;6.136;2023-02-17T05:52:59;101570.88;;;10.05;100.00
37202;BME280;37799;52.390;6.136;2023-02-17T05:55:24;101570.09;;;9.97;100.00
37202;BME280;37799;52.390;6.136;2023-02-17T05:57:49;101558.03;;;9.96;100.00
37202;BME280;37799;52.390;6.136;2023-02-17T06:00:15;101559.78;;;9.94;100.00
37202;BME280;37799;52.390;6.136;2023-02-17T06:02:40;101570.16;;;9.94;100.00
37202;BME280;37799;52.390;6.136;2023-02-17T06:05:06;101564.78;;;10.10;100.00
37202;BME280;37799;52.390;6.136;2023-02-17T06:07:32;101575.25;;;9.99;100.00
37202;BME280;37799;52.390;6.136;2023-02-17T06:09:57;101572.78;;;9.91;100.00
37202;BME280;37799;52.390;6.136;2023-02-17T06:12:23;101568.47;;;9.92;100.00
37202;BME280;37799;52.390;6.136;2023-02-17T06:14:48;101565.69;;;10.05;100.00
37202;BME280;37799;52.390;6.136;2023-02-17T06:17:13;101567.50;;;9.97;100.00
37202;BME280;37799;52.390;6.136;2023-02-17T06:19:38;101573.50;;;10.01;100.00
37202;BME280;37799;52.390;6.136;2023-02-17T06:22:04;101582.13;;;10.00;100.00
37202;BME280;37799;52.390;6.136;2023-02-17T06:24:29;101580.44;;;9.99;100.00
37202;BME280;37799;52.390;6.136;2023-02-17T06:26:55;101582.13;;;10.00;100.00
37202;BME280;37799;52.390;6.136;2023-02-17T06:29:20;101582.16;;;9.98;100.00
37202;BME280;37799;52.390;6.136;2023-02-17T06:31:45;101572.63;;;10.03;100.00
37202;BME280;37799;52.390;6.136;2023-02-17T06:34:10;101571.72;;;10.08;100.00
37202;BME280;37799;52.390;6.136;2023-02-17T06:36:36;101586.28;;;10.13;100.00
37202;BME280;37799;52.390;6.136;2023-02-17T06:39:02;101582.94;;;10.07;100.00
37202;BME280;37799;52.390;6.136;2023-02-17T06:41:27;101571.91;;;9.91;100.00
37202;BME280;37799;52.390;6.136;2023-02-17T06:43:52;101567.56;;;9.94;100.00
37202;BME280;37799;52.390;6.136;2023-02-17T06:46:18;101569.19;;;10.03;100.00
37202;BME280;37799;52.390;6.136;2023-02-17T06:48:43;101572.63;;;10.03;100.00
37202;BME280;37799;52.390;6.136;2023-02-17T06:51:08;101581.22;;;10.05;100.00
37202;BME280;37799;52.390;6.136;2023-02-17T06:53:34;101557.09;;;10.05;100.00
37202;BME280;37799;52.390;6.136;2023-02-17T06:55:59;101551.88;;;10.07;100.00
37202;BME280;37799;52.390;6.136;2023-02-17T06:58:25;101558.00;;;9.99;100.00
37202;BME280;37799;52.390;6.136;2023-02-17T07:00:50;101547.56;;;10.07;100.00
37202;BME280;37799;52.390;6.136;2023-02-17T07:03:15;101553.50;;;10.14;100.00
37202;BME280;37799;52.390;6.136;2023-02-17T07:05:41;101553.44;;;10.20;100.00
37202;BME280;37799;52.390;6.136;2023-02-17T07:08:06;101550.91;;;10.15;100.00
37202;BME280;37799;52.390;6.136;2023-02-17T07:10:32;101550.84;;;10.20;100.00
37202;BME280;37799;52.390;6.136;2023-02-17T07:12:57;101547.50;;;10.12;100.00
37202;BME280;37799;52.390;6.136;2023-02-17T07:15:23;101543.09;;;10.20;100.00
37202;BME280;37799;52.390;6.136;2023-02-17T07:17:48;101546.59;;;10.16;100.00
37202;BME280;37799;52.390;6.136;2023-02-17T07:20:13;101549.97;;;10.24;100.00
37202;BME280;37799;52.390;6.136;2023-02-17T07:22:39;101547.50;;;10.12;100.00
37202;BME280;37799;52.390;6.136;2023-02-17T07:25:05;101553.50;;;10.17;100.00
37202;BME280;37799;52.390;6.136;2023-02-17T07:27:31;101556.09;;;10.17;100.00
37202;BME280;37799;52.390;6.136;2023-02-17T07:29:56;101563.84;;;10.14;100.00
37202;BME280;37799;52.390;6.136;2023-02-17T07:32:22;101567.31;;;10.16;100.00
37202;BME280;37799;52.390;6.136;2023-02-17T07:34:47;101556.19;;;10.08;100.00
37202;BME280;37799;52.390;6.136;2023-02-17T07:37:12;101557.78;;;10.19;100.00
37202;BME280;37799;52.390;6.136;2023-02-17T07:39:38;101550.03;;;10.15;100.00
37202;BME280;37799;52.390;6.136;2023-02-17T07:42:03;101550.13;;;10.09;100.00
37202;BME280;37799;52.390;6.136;2023-02-17T07:44:30;101547.53;;;10.10;100.00
37202;BME280;37799;52.390;6.136;2023-02-17T07:46:55;101548.38;;;10.11;100.00
37202;BME280;37799;52.390;6.136;2023-02-17T07:49:20;101544.78;;;10.24;100.00
37202;BME280;37799;52.390;6.136;2023-02-17T07:51:46;101541.38;;;10.22;100.00
37202;BME280;37799;52.390;6.136;2023-02-17T07:54:11;101552.41;;;10.34;100.00
37202;BME280;37799;52.390;6.136;2023-02-17T07:56:37;101549.00;;;10.32;100.00
37202;BME280;37799;52.390;6.136;2023-02-17T07:59:07;101546.59;;;10.16;100.00
37202;BME280;37799;52.390;6.136;2023-02-17T08:01:32;101545.59;;;10.29;100.00
37202;BME280;37799;52.390;6.136;2023-02-17T08:03:58;101547.31;;;10.30;100.00
37202;BME280;37799;52.390;6.136;2023-02-17T08:06:24;101544.63;;;10.36;100.00
37202;BME280;37799;52.390;6.136;2023-02-17T08:08:51;101538.63;;;10.34;100.00
37202;BME280;37799;52.390;6.136;2023-02-17T08:11:35;101542.09;;;10.33;100.00
37202;BME280;37799;52.390;6.136;2023-02-17T08:14:20;101543.69;;;10.40;100.00
37202;BME280;37799;52.390;6.136;2023-02-17T08:16:46;101557.44;;;10.47;100.00
37202;BME280;37799;52.390;6.136;2023-02-17T08:19:11;101566.81;;;10.52;100.00
37202;BME280;37799;52.390;6.136;2023-02-17T08:21:37;101569.47;;;10.49;100.00
37202;BME280;37799;52.390;6.136;2023-02-17T08:24:02;101574.50;;;10.60;100.00
37202;BME280;37799;52.390;6.136;2023-02-17T08:26:28;101571.84;;;10.64;100.00
37202;BME280;37799;52.390;6.136;2023-02-17T08:28:54;101574.41;;;10.66;100.00
37202;BME280;37799;52.390;6.136;2023-02-17T08:31:26;101584.75;;;10.68;100.00
37202;BME280;37799;52.390;6.136;2023-02-17T08:33:51;101577.84;;;10.68;100.00
37202;BME280;37799;52.390;6.136;2023-02-17T08:36:17;101582.13;;;10.71;100.00
37202;BME280;37799;52.390;6.136;2023-02-17T08:38:45;101597.34;;;10.90;100.00
37202;BME280;37799;52.390;6.136;2023-02-17T08:43:50;101594.81;;;10.87;100.00
37202;BME280;37799;52.390;6.136;2023-02-17T08:46:17;101593.19;;;10.80;100.00
37202;BME280;37799;52.390;6.136;2023-02-17T08:48:43;101592.16;;;10.92;100.00
37202;BME280;37799;52.390;6.136;2023-02-17T08:51:14;101589.53;;;10.93;100.00
37202;BME280;37799;52.390;6.136;2023-02-17T08:53:40;101594.59;;;11.01;100.00
37202;BME280;37799;52.390;6.136;2023-02-17T08:56:05;101588.47;;;11.08;100.00
37202;BME280;37799;52.390;6.136;2023-02-17T08:58:31;101591.88;;;11.10;100.00
37202;BME280;37799;52.390;6.136;2023-02-17T09:00:57;101591.03;;;11.10;100.00
37202;BME280;37799;52.390;6.136;2023-02-17T09:03:22;101574.50;;;11.15;100.00
37202;BME280;37799;52.390;6.136;2023-02-17T09:05:47;101581.41;;;11.16;100.00
37202;BME280;37799;52.390;6.136;2023-02-17T09:08:13;101582.09;;;11.26;100.00
37202;BME280;37799;52.390;6.136;2023-02-17T09:10:38;101589.81;;;11.29;100.00
37202;BME280;37799;52.390;6.136;2023-02-17T09:13:04;101580.09;;;11.42;100.00
37202;BME280;37799;52.390;6.136;2023-02-17T09:15:29;101587.06;;;11.40;100.00
37202;BME280;37799;52.390;6.136;2023-02-17T09:17:55;101581.06;;;11.36;100.00
37202;BME280;37799;52.390;6.136;2023-02-17T09:20:20;101589.84;;;11.28;100.00
37202;BME280;37799;52.390;6.136;2023-02-17T09:22:45;101586.38;;;11.29;100.00
37202;BME280;37799;52.390;6.136;2023-02-17T09:25:11;101581.91;;;11.38;100.00
37202;BME280;37799;52.390;6.136;2023-02-17T09:27:36;101566.38;;;11.37;100.00
37202;BME280;37799;52.390;6.136;2023-02-17T09:30:01;101574.22;;;11.34;100.00
37202;BME280;37799;52.390;6.136;2023-02-17T09:32:27;101569.06;;;11.31;100.00
37202;BME280;37799;52.390;6.136;2023-02-17T09:34:52;101568.81;;;11.44;100.00
37202;BME280;37799;52.390;6.136;2023-02-17T09:37:19;101566.97;;;11.51;100.00
37202;BME280;37799;52.390;6.136;2023-02-17T09:39:45;101567.94;;;11.45;100.00
37202;BME280;37799;52.390;6.136;2023-02-17T09:42:22;101574.91;;;11.42;100.00
37202;BME280;37799;52.390;6.136;2023-02-17T09:45:15;101559.72;;;11.68;100.00
37202;BME280;37799;52.390;6.136;2023-02-17T09:47:47;101567.31;;;11.80;100.00
37202;BME280;37799;52.390;6.136;2023-02-17T09:50:16;101564.06;;;11.68;100.00
37202;BME280;37799;52.390;6.136;2023-02-17T09:52:49;101557.91;;;11.73;100.00
37202;BME280;37799;52.390;6.136;2023-02-17T09:55:47;101575.16;;;11.76;100.00
37202;BME280;37799;52.390;6.136;2023-02-17T09:58:19;101564.75;;;11.77;100.00
37202;BME280;37799;52.390;6.136;2023-02-17T10:00:49;101566.31;;;11.88;100.00
37202;BME280;37799;52.390;6.136;2023-02-17T10:03:29;101559.31;;;11.91;100.00
37202;BME280;37799;52.390;6.136;2023-02-17T10:06:12;101574.75;;;11.99;100.00
37202;BME280;37799;52.390;6.136;2023-02-17T10:11:44;101562.69;;;11.95;100.00
37202;BME280;37799;52.390;6.136;2023-02-17T10:14:28;101564.56;;;11.90;100.00
37202;BME280;37799;52.390;6.136;2023-02-17T10:17:19;101565.50;;;11.84;100.00
37202;BME280;37799;52.390;6.136;2023-02-17T10:19:59;101578.47;;;11.86;100.00
37202;BME280;37799;52.390;6.136;2023-02-17T10:22:29;101571.66;;;11.78;100.00
37202;BME280;37799;52.390;6.136;2023-02-17T10:24:56;101579.34;;;11.85;100.00
37202;BME280;37799;52.390;6.136;2023-02-17T10:30:29;101567.06;;;11.93;100.00
37202;BME280;37799;52.390;6.136;2023-02-17T10:33:00;101579.34;;;11.86;100.00
37202;BME280;37799;52.390;6.136;2023-02-17T10:35:37;101583.59;;;11.89;100.00
37202;BME280;37799;52.390;6.136;2023-02-17T10:38:34;101576.53;;;11.95;100.00
37202;BME280;37799;52.390;6.136;2023-02-17T10:41:04;101589.81;;;11.80;100.00
37202;BME280;37799;52.390;6.136;2023-02-17T10:43:33;101586.47;;;11.73;100.00
37202;BME280;37799;52.390;6.136;2023-02-17T10:45:59;101600.00;;;11.91;100.00
37202;BME280;37799;52.390;6.136;2023-02-17T10:48:48;101599.13;;;11.90;100.00
37202;BME280;37799;52.390;6.136;2023-02-17T10:51:17;101595.63;;;11.93;100.00
37202;BME280;37799;52.390;6.136;2023-02-17T10:53:46;101605.28;;;11.85;100.00
37202;BME280;37799;52.390;6.136;2023-02-17T10:56:26;101611.00;;;12.03;100.00
37202;BME280;37799;52.390;6.136;2023-02-17T10:59:13;101617.69;;;12.15;100.00
37202;BME280;37799;52.390;6.136;2023-02-17T11:01:42;101604.63;;;12.18;100.00
37202;BME280;37799;52.390;6.136;2023-02-17T11:04:10;101619.56;;;12.07;100.00
37202;BME280;37799;52.390;6.136;2023-02-17T11:06:41;101618.22;;;11.88;100.00
37202;BME280;37799;52.390;6.136;2023-02-17T11:09:18;101640.69;;;11.89;100.00
37202;BME280;37799;52.390;6.136;2023-02-17T11:11:52;101644.94;;;11.93;100.00
37202;BME280;37799;52.390;6.136;2023-02-17T11:14:30;101637.16;;;11.93;100.00
37202;BME280;37799;52.390;6.136;2023-02-17T11:17:01;101656.97;;;11.97;100.00
37202;BME280;37799;52.390;6.136;2023-02-17T11:19:32;101639.88;;;11.87;100.00
37202;BME280;37799;52.390;6.136;2023-02-17T11:21:59;101632.19;;;11.80;100.00
37202;BME280;37799;52.390;6.136;2023-02-17T11:24:27;101645.94;;;11.84;100.00
37202;BME280;37799;52.390;6.136;2023-02-17T11:27:23;101635.31;;;11.98;100.00
37202;BME280;37799;52.390;6.136;2023-02-17T11:29:49;101635.41;;;11.93;100.00
37202;BME280;37799;52.390;6.136;2023-02-17T11:32:14;101644.22;;;11.85;100.00
37202;BME280;37799;52.390;6.136;2023-02-17T11:34:41;101644.22;;;11.85;100.00
37202;BME280;37799;52.390;6.136;2023-02-17T11:39:46;101652.78;;;11.90;100.00
37202;BME280;37799;52.390;6.136;2023-02-17T11:44:45;101640.75;;;11.86;100.00
37202;BME280;37799;52.390;6.136;2023-02-17T11:56:21;101644.31;;;11.80;100.00
37202;BME280;37799;52.390;6.136;2023-02-17T12:04:33;101652.31;;;11.66;100.00
37202;BME280;37799;52.390;6.136;2023-02-17T12:13:02;101672.31;;;11.58;100.00
37202;BME280;37799;52.390;6.136;2023-02-17T12:15:53;101675.59;;;11.69;100.00
37202;BME280;37799;52.390;6.136;2023-02-17T12:18:40;101667.91;;;11.65;100.00
37202;BME280;37799;52.390;6.136;2023-02-17T12:21:14;101654.16;;;11.60;100.00
37202;BME280;37799;52.390;6.136;2023-02-17T12:24:03;101663.56;;;11.65;100.00
37202;BME280;37799;52.390;6.136;2023-02-17T12:26:41;101666.31;;;11.56;100.00
37202;BME280;37799;52.390;6.136;2023-02-17T12:29:37;101672.97;;;11.71;100.00
37202;BME280;37799;52.390;6.136;2023-02-17T12:32:40;101679.22;;;11.61;100.00
37202;BME280;37799;52.390;6.136;2023-02-17T12:35:23;101663.81;;;11.50;100.00
37202;BME280;37799;52.390;6.136;2023-02-17T12:37:54;101680.25;;;11.50;100.00
37202;BME280;37799;52.390;6.136;2023-02-17T12:40:34;101673.16;;;11.62;100.00
37202;BME280;37799;52.390;6.136;2023-02-17T12:43:06;101690.47;;;11.60;100.00
37202;BME280;37799;52.390;6.136;2023-02-17T12:45:41;101684.47;;;11.56;100.00
37202;BME280;37799;52.390;6.136;2023-02-17T12:48:26;101699.88;;;11.65;100.00
37202;BME280;37799;52.390;6.136;2023-02-17T12:50:59;101698.03;;;11.73;100.00
37202;BME280;37799;52.390;6.136;2023-02-17T12:53:48;101699.91;;;11.64;100.00
37202;BME280;37799;52.390;6.136;2023-02-17T12:58:51;101692.19;;;11.61;100.00
37202;BME280;37799;52.390;6.136;2023-02-17T13:01:18;101707.56;;;11.71;100.00
37202;BME280;37799;52.390;6.136;2023-02-17T13:03:46;101702.19;;;11.84;100.00
37202;BME280;37799;52.390;6.136;2023-02-17T13:06:31;101699.69;;;11.77;100.00
37202;BME280;37799;52.390;6.136;2023-02-17T13:09:14;101713.53;;;11.76;100.00
37202;BME280;37799;52.390;6.136;2023-02-17T13:11:41;101708.53;;;11.66;100.00
37202;BME280;37799;52.390;6.136;2023-02-17T13:14:48;101687.69;;;11.72;100.00
37202;BME280;37799;52.390;6.136;2023-02-17T13:22:29;101697.19;;;11.70;100.00
37202;BME280;37799;52.390;6.136;2023-02-17T13:24:54;101691.22;;;11.66;100.00
37202;BME280;37799;52.390;6.136;2023-02-17T13:27:34;101697.22;;;11.68;100.00
37202;BME280;37799;52.390;6.136;2023-02-17T13:30:07;101707.50;;;11.76;100.00
37202;BME280;37799;52.390;6.136;2023-02-17T13:33:06;101696.09;;;11.85;100.00
37202;BME280;37799;52.390;6.136;2023-02-17T13:35:39;101690.16;;;11.78;100.00
37202;BME280;37799;52.390;6.136;2023-02-17T13:38:05;101694.44;;;11.82;100.00
37202;BME280;37799;52.390;6.136;2023-02-17T13:40:38;101723.06;;;11.76;100.00
37202;BME280;37799;52.390;6.136;2023-02-17T13:43:18;101710.91;;;11.79;100.00
37202;BME280;37799;52.390;6.136;2023-02-17T13:46:02;101727.34;;;11.78;100.00
37202;BME280;37799;52.390;6.136;2023-02-17T13:53:33;101691.81;;;11.85;100.00
37202;BME280;37799;52.390;6.136;2023-02-17T13:56:02;101691.59;;;11.96;100.00
37202;BME280;37799;52.390;6.136;2023-02-17T13:58:36;101697.38;;;12.10;100.00
37202;BME280;37799;52.390;6.136;2023-02-17T14:01:03;101694.66;;;12.18;100.00